Observation data for Olton on 02/15/2018      Previous  Date  Next       Current Mesonet Observations  Soil Data  Daily Summary Page  Observations in Plain Language
KONS 150600Z 22012KT 16/M01 A3001 RMK A01 T01561005  RH  034%=      5-min Rain = 0
KONS 150605Z 22012KT 16/M00 A3001 RMK A01 T01571004  RH  034%=      5-min Rain = 0
KONS 150610Z 21011KT 15/M00 A3001 RMK A01 T01541003  RH  034%=      5-min Rain = 0
KONS 150615Z 21011KT 15/M00 A3001 RMK A01 T01511002  RH  035%=      5-min Rain = 0
KONS 150620Z 21010KT 15/M00 A3001 RMK A01 T01491002  RH  036%=      5-min Rain = 0
KONS 150625Z 21010KT 15/M00 A3001 RMK A01 T01471001  RH  037%=      5-min Rain = 0
KONS 150630Z 21010KT 14/M00 A3001 RMK A01 T01441001  RH  037%=      5-min Rain = 0
KONS 150635Z 22010KT 14/M00 A3001 RMK A01 T01421001  RH  038%=      5-min Rain = 0
KONS 150640Z 22010KT 14/00 A3001 RMK A01 T014000-0  RH  039%=      5-min Rain = 0
KONS 150645Z 22010KT 14/M00 A3001 RMK A01 T01381001  RH  039%=      5-min Rain = 0
KONS 150650Z 22011KT 14/M00 A30 RMK A01 T01381002  RH  039%=      5-min Rain = 0
KONS 150655Z 21011KT 14/M00 A30 RMK A01 T01371001  RH  039%=      5-min Rain = 0
KONS 150700Z 22011KT 14/00 A30 RMK A01 T01370000  RH  039%=      5-min Rain = 0
KONS 150705Z 23011KT 14/M00 A30 RMK A01 T01371001  RH  039%=      5-min Rain = 0
KONS 150710Z 22012KT 14/M00 A30 RMK A01 T01391001  RH  039%=      5-min Rain = 0
KONS 150715Z 23011KT 14/00 A30 RMK A01 T01400001  RH  039%=      5-min Rain = 0
KONS 150720Z 23011KT 14/00 A30 RMK A01 T01370000  RH  040%=      5-min Rain = 0
KONS 150725Z 23012KT 14/00 A30 RMK A01 T01360001  RH  040%=      5-min Rain = 0
KONS 150730Z 23011KT 13/00 A30 RMK A01 T01340002  RH  041%=      5-min Rain = 0
KONS 150735Z 22012KT 14/00 A30 RMK A01 T01350002  RH  040%=      5-min Rain = 0
KONS 150740Z 21011KT 14/00 A30 RMK A01 T01360003  RH  041%=      5-min Rain = 0
KONS 150745Z 22011KT 13/00 A30 RMK A01 T01320003  RH  042%=      5-min Rain = 0
KONS 150750Z 23011KT 13/00 A3001 RMK A01 T01320002  RH  041%=      5-min Rain = 0
KONS 150755Z 24009KT 13/00 A3001 RMK A01 T01310002  RH  042%=      5-min Rain = 0
KONS 150800Z 23009KT 13/00 A3001 RMK A01 T01280003  RH  043%=      5-min Rain = 0
KONS 150805Z 21008KT 13/00 A3001 RMK A01 T01270004  RH  043%=      5-min Rain = 0
KONS 150810Z 19008KT 12/01 A3001 RMK A01 T01230005  RH  045%=      5-min Rain = 0
KONS 150815Z 19010KT 12/01 A30 RMK A01 T01170007  RH  047%=      5-min Rain = 0
KONS 150820Z 21009KT 12/01 A3001 RMK A01 T01150005  RH  047%=      5-min Rain = 0
KONS 150825Z 20009KT 11/01 A3001 RMK A01 T01120006  RH  048%=      5-min Rain = 0
KONS 150830Z 21010KT 11/01 A3001 RMK A01 T01080005  RH  049%=      5-min Rain = 0
KONS 150835Z 21010KT 11/00 A3001 RMK A01 T01110003  RH  048%=      5-min Rain = 0
KONS 150840Z 21010KT 11/00 A30 RMK A01 T01130003  RH  047%=      5-min Rain = 0
KONS 150845Z 20009KT 11/00 A30 RMK A01 T01130004  RH  047%=      5-min Rain = 0
KONS 150850Z 20010KT 11/01 A30 RMK A01 T01070005  RH  050%=      5-min Rain = 0
KONS 150855Z 20011KT 11/01 A30 RMK A01 T01050005  RH  050%=      5-min Rain = 0
KONS 150900Z 20011KT 11/00 A30 RMK A01 T01080004  RH  049%=      5-min Rain = 0
KONS 150905Z 21010KT 11/00 A30 RMK A01 T01110004  RH  048%=      5-min Rain = 0
KONS 150910Z 21010KT 11/00 A30 RMK A01 T01110004  RH  048%=      5-min Rain = 0
KONS 150915Z 20011KT 11/00 A30 RMK A01 T01090004  RH  049%=      5-min Rain = 0
KONS 150920Z 21011KT 11/00 A30 RMK A01 T01110004  RH  048%=      5-min Rain = 0
KONS 150925Z 21011KT 11/00 A30 RMK A01 T01120004  RH  048%=      5-min Rain = 0
KONS 150930Z 21011KT 11/00 A2999 RMK A01 T01120004  RH  048%=      5-min Rain = 0
KONS 150935Z 20012KT 11/01 A2999 RMK A01 T01120005  RH  048%=      5-min Rain = 0
KONS 150940Z 20012KT 11/01 A2999 RMK A01 T01090005  RH  049%=      5-min Rain = 0
KONS 150945Z 21013KT 11/01 A2999 RMK A01 T01130006  RH  048%=      5-min Rain = 0
KONS 150950Z 20013KT 12/01 A2998 RMK A01 T01160008  RH  048%=      5-min Rain = 0
KONS 150955Z 21012KT 12/01 A2999 RMK A01 T01160008  RH  048%=      5-min Rain = 0
KONS 151000Z 21011KT 12/01 A2999 RMK A01 T01160008  RH  048%=      5-min Rain = 0
KONS 151005Z 22010KT 12/01 A2998 RMK A01 T01160009  RH  048%=      5-min Rain = 0
KONS 151010Z 21010KT 11/01 A2998 RMK A01 T01140009  RH  049%=      5-min Rain = 0
KONS 151015Z 20010KT 11/01 A2998 RMK A01 T01110010  RH  050%=      5-min Rain = 0
KONS 151020Z 20011KT 11/01 A2998 RMK A01 T01070010  RH  052%=      5-min Rain = 0
KONS 151025Z 20010KT 11/01 A2998 RMK A01 T01050010  RH  052%=      5-min Rain = 0
KONS 151030Z 20010KT 10/01 A2998 RMK A01 T01040010  RH  053%=      5-min Rain = 0
KONS 151035Z 21009KT 11/01 A2998 RMK A01 T01050010  RH  053%=      5-min Rain = 0
KONS 151040Z 22008KT 11/01 A2998 RMK A01 T01050010  RH  052%=      5-min Rain = 0
KONS 151045Z 22009KT 10/01 A2998 RMK A01 T01010010  RH  053%=      5-min Rain = 0
KONS 151050Z 21010KT 10/01 A2997 RMK A01 T01000010  RH  054%=      5-min Rain = 0
KONS 151055Z 21010KT 10/01 A2997 RMK A01 T01000010  RH  054%=      5-min Rain = 0
KONS 151100Z 21010KT 10/01 A2997 RMK A01 T00980010  RH  055%=      5-min Rain = 0
KONS 151105Z 20010KT 10/01 A2997 RMK A01 T00990010  RH  055%=      5-min Rain = 0
KONS 151110Z 20011KT 10/01 A2997 RMK A01 T00970010  RH  055%=      5-min Rain = 0
KONS 151115Z 20011KT 09/01 A2997 RMK A01 T00940009  RH  056%=      5-min Rain = 0
KONS 151120Z 20011KT 09/01 A2996 RMK A01 T00930009  RH  056%=      5-min Rain = 0
KONS 151125Z 20011KT 09/01 A2996 RMK A01 T00940008  RH  055%=      5-min Rain = 0
KONS 151130Z 21012KT 10/01 A2996 RMK A01 T01010007  RH  053%=      5-min Rain = 0
KONS 151135Z 21012KT 11/01 A2996 RMK A01 T01050007  RH  051%=      5-min Rain = 0
KONS 151140Z 21012KT 11/01 A2996 RMK A01 T01070008  RH  051%=      5-min Rain = 0
KONS 151145Z 21012KT 11/01 A2996 RMK A01 T01090008  RH  050%=      5-min Rain = 0
KONS 151150Z 21013KT 11/01 A2996 RMK A01 T01120008  RH  049%=      5-min Rain = 0
KONS 151155Z 22013KT 11/01 A2996 RMK A01 T01140009  RH  049%=      5-min Rain = 0
KONS 151200Z 22014KT 12/01 A2996 RMK A01 T01160009  RH  049%=      5-min Rain = 0
KONS 151205Z 22013KT 12/01 A2996 RMK A01 T01150010  RH  049%=      5-min Rain = 0
KONS 151210Z 21012KT 11/01 A2996 RMK A01 T01120010  RH  050%=      5-min Rain = 0
KONS 151215Z 22012KT 11/01 A2996 RMK A01 T01120010  RH  050%=      5-min Rain = 0
KONS 151220Z 22013KT 11/01 A2996 RMK A01 T01120010  RH  050%=      5-min Rain = 0
KONS 151225Z 22013KT 11/01 A2996 RMK A01 T01110011  RH  051%=      5-min Rain = 0
KONS 151230Z 21013KT 11/01 A2996 RMK A01 T01130012  RH  051%=      5-min Rain = 0
KONS 151235Z 21014KT 12/01 A2996 RMK A01 T01150014  RH  051%=      5-min Rain = 0
KONS 151240Z 22016KT 12/02 A2996 RMK A01 T01200016  RH  050%=      5-min Rain = 0
KONS 151245Z 22016KT 12/02 A2996 RMK A01 T01240019  RH  049%=      5-min Rain = 0
KONS 151250Z 22015KT 13/02 A2996 RMK A01 T01250020  RH  049%=      5-min Rain = 0
KONS 151255Z 22014KT 12/02 A2996 RMK A01 T01240021  RH  050%=      5-min Rain = 0
KONS 151300Z 22014KT 13/02 A2996 RMK A01 T01260022  RH  050%=      5-min Rain = 0
KONS 151305Z 22015KT 13/02 A2996 RMK A01 T01280024  RH  050%=      5-min Rain = 0
KONS 151310Z 22014KT 13/03 A2996 RMK A01 T01270025  RH  050%=      5-min Rain = 0
KONS 151315Z 22014KT 13/03 A2996 RMK A01 T01270026  RH  051%=      5-min Rain = 0
KONS 151320Z 21014KT 13/03 A2996 RMK A01 T01270026  RH  051%=      5-min Rain = 0
KONS 151325Z 22016G21KT 13/03 A2996 RMK A01 T01270025  RH  050%=      5-min Rain = 0
KONS 151330Z 22017KT 13/03 A2995 RMK A01 T01270025  RH  050%=      5-min Rain = 0
KONS 151335Z 22014KT 13/03 A2996 RMK A01 T01250025  RH  051%=      5-min Rain = 0
KONS 151340Z 22014KT 12/03 A2996 RMK A01 T01230025  RH  052%=      5-min Rain = 0
KONS 151345Z 22014KT 12/03 A2996 RMK A01 T01210025  RH  052%=      5-min Rain = 0
KONS 151350Z 22014KT 12/03 A2996 RMK A01 T01210025  RH  053%=      5-min Rain = 0
KONS 151355Z 22013KT 12/03 A2996 RMK A01 T01210026  RH  053%=      5-min Rain = 0
KONS 151400Z 22013KT 12/03 A2996 RMK A01 T01220028  RH  053%=      5-min Rain = 0
KONS 151405Z 22013KT 12/03 A2996 RMK A01 T01230029  RH  053%=      5-min Rain = 0
KONS 151410Z 22013KT 13/03 A2996 RMK A01 T01250030  RH  053%=      5-min Rain = 0
KONS 151415Z 22012KT 13/03 A2996 RMK A01 T01250031  RH  053%=      5-min Rain = 0
KONS 151420Z 22011KT 13/03 A2996 RMK A01 T01250032  RH  054%=      5-min Rain = 0
KONS 151425Z 22011KT 13/03 A2996 RMK A01 T01250033  RH  054%=      5-min Rain = 0
KONS 151430Z 21010KT 12/03 A2996 RMK A01 T01240033  RH  054%=      5-min Rain = 0
KONS 151435Z 21010KT 12/04 A2997 RMK A01 T01240035  RH  055%=      5-min Rain = 0
KONS 151440Z 22011KT 13/04 A2997 RMK A01 T01280036  RH  054%=      5-min Rain = 0
KONS 151445Z 24010KT 13/04 A2998 RMK A01 T01320037  RH  053%=      5-min Rain = 0
KONS 151450Z 30010G16KT 13/04 A2999 RMK A01 T01320036  RH  053%=      5-min Rain = 0
KONS 151455Z 28013KT 14/03 A2999 RMK A01 T01370034  RH  050%=      5-min Rain = 0
KONS 151500Z 24010KT 14/04 A2998 RMK A01 T01410036  RH  050%=      5-min Rain = 0
KONS 151505Z 27011G19KT 15/04 A2998 RMK A01 T01460040  RH  050%=      5-min Rain = 0
KONS 151510Z 28010KT 15/04 A2999 RMK A01 T01510041  RH  048%=      5-min Rain = 0
KONS 151515Z 28012KT 16/04 A2999 RMK A01 T01550039  RH  047%=      5-min Rain = 0
KONS 151520Z 28014KT 16/04 A2999 RMK A01 T01610040  RH  045%=      5-min Rain = 0
KONS 151525Z 28015KT 16/04 A30 RMK A01 T01630039  RH  044%=      5-min Rain = 0
KONS 151530Z 27013KT 16/04 A30 RMK A01 T01640040  RH  044%=      5-min Rain = 0
KONS 151535Z 27013KT 17/04 A30 RMK A01 T01660042  RH  044%=      5-min Rain = 0
KONS 151540Z 28014KT 17/04 A30 RMK A01 T01680042  RH  044%=      5-min Rain = 0
KONS 151545Z 27013KT 17/04 A30 RMK A01 T01690041  RH  043%=      5-min Rain = 0
KONS 151550Z 28012KT 17/04 A30 RMK A01 T01700042  RH  043%=      5-min Rain = 0
KONS 151555Z 27013KT 17/04 A30 RMK A01 T01700041  RH  043%=      5-min Rain = 0
KONS 151600Z 28013KT 17/04 A30 RMK A01 T01710041  RH  043%=      5-min Rain = 0
KONS 151605Z 27013KT 17/04 A3001 RMK A01 T01690038  RH  042%=      5-min Rain = 0
KONS 151610Z 27011KT 17/04 A3001 RMK A01 T01690039  RH  042%=      5-min Rain = 0
KONS 151615Z 30011KT 17/04 A30 RMK A01 T01680042  RH  044%=      5-min Rain = 0
KONS 151620Z 30011KT 16/05 A30 RMK A01 T01640047  RH  046%=      5-min Rain = 0
KONS 151625Z 29012KT 16/05 A3001 RMK A01 T01630048  RH  047%=      5-min Rain = 0
KONS 151630Z 29012KT 16/05 A3001 RMK A01 T01640049  RH  047%=      5-min Rain = 0
KONS 151635Z 29012KT 17/05 A3001 RMK A01 T01660047  RH  046%=      5-min Rain = 0
KONS 151640Z 29010KT 17/05 A3001 RMK A01 T01680047  RH  045%=      5-min Rain = 0
KONS 151645Z 29012KT 17/05 A3001 RMK A01 T01730047  RH  044%=      5-min Rain = 0
KONS 151650Z 29011G16KT 18/05 A3001 RMK A01 T01770046  RH  042%=      5-min Rain = 0
KONS 151655Z 29013KT 18/05 A3001 RMK A01 T01800045  RH  041%=      5-min Rain = 0
KONS 151700Z 29013KT 18/05 A3001 RMK A01 T01790045  RH  042%=      5-min Rain = 0
KONS 151705Z 29012KT 18/04 A3001 RMK A01 T01770044  RH  042%=      5-min Rain = 0
KONS 151710Z 28010KT 18/04 A3001 RMK A01 T01760044  RH  042%=      5-min Rain = 0
KONS 151715Z 27011KT 18/05 A3001 RMK A01 T01820045  RH  041%=      5-min Rain = 0
KONS 151720Z 26011KT 19/05 A3001 RMK A01 T01860045  RH  040%=      5-min Rain = 0
KONS 151725Z 26012G17KT 19/05 A3001 RMK A01 T01900045  RH  039%=      5-min Rain = 0
KONS 151730Z 26014KT 19/05 A3001 RMK A01 T01890046  RH  039%=      5-min Rain = 0
KONS 151735Z 27013G18KT 19/05 A3001 RMK A01 T01910046  RH  039%=      5-min Rain = 0
KONS 151740Z 27014KT 19/05 A3001 RMK A01 T01930045  RH  038%=      5-min Rain = 0
KONS 151745Z 27012KT 19/05 A30 RMK A01 T01940046  RH  038%=      5-min Rain = 0
KONS 151750Z 26013KT 20/05 A30 RMK A01 T01970047  RH  038%=      5-min Rain = 0
KONS 151755Z 26014G19KT 20/05 A30 RMK A01 T02000049  RH  037%=      5-min Rain = 0
KONS 151800Z 25014KT 20/05 A30 RMK A01 T02030049  RH  037%=      5-min Rain = 0
KONS 151805Z 26013G18KT 21/05 A2999 RMK A01 T02060049  RH  036%=      5-min Rain = 0
KONS 151810Z 26014KT 21/05 A2999 RMK A01 T02100048  RH  035%=      5-min Rain = 0
KONS 151815Z 26015KT 21/05 A2999 RMK A01 T02120048  RH  034%=      5-min Rain = 0
KONS 151820Z 25014KT 21/05 A2999 RMK A01 T02130047  RH  034%=      5-min Rain = 0
KONS 151825Z 26013KT 22/05 A2998 RMK A01 T02170047  RH  033%=      5-min Rain = 0
KONS 151830Z 25014KT 22/05 A2998 RMK A01 T02160047  RH  033%=      5-min Rain = 0
KONS 151835Z 25015G20KT 22/05 A2998 RMK A01 T02230047  RH  032%=      5-min Rain = 0
KONS 151840Z 25015G22KT 23/05 A2998 RMK A01 T02270047  RH  031%=      5-min Rain = 0
KONS 151845Z 24016KT 23/05 A2997 RMK A01 T02310048  RH  031%=      5-min Rain = 0
KONS 151850Z 25018G24KT 24/05 A2997 RMK A01 T02380048  RH  030%=      5-min Rain = 0
KONS 151855Z 24017G23KT 24/05 A2997 RMK A01 T02380049  RH  030%=      5-min Rain = 0
KONS 151900Z 25018G24KT 23/05 A2996 RMK A01 T02320047  RH  030%=      5-min Rain = 0
KONS 151905Z 25018G23KT 23/05 A2996 RMK A01 T02300047  RH  031%=      5-min Rain = 0
KONS 151910Z 27017KT 23/05 A2996 RMK A01 T02290046  RH  031%=      5-min Rain = 0
KONS 151915Z 28016G22KT 23/05 A2995 RMK A01 T02260046  RH  031%=      5-min Rain = 0
KONS 151920Z 28014G19KT 23/05 A2995 RMK A01 T02270046  RH  031%=      5-min Rain = 0
KONS 151925Z 27017KT 23/05 A2995 RMK A01 T02260045  RH  031%=      5-min Rain = 0
KONS 151930Z 28014KT 22/05 A2994 RMK A01 T02240045  RH  032%=      5-min Rain = 0
KONS 151935Z 28014KT 22/05 A2994 RMK A01 T02230045  RH  032%=      5-min Rain = 0
KONS 151940Z 28013KT 22/05 A2994 RMK A01 T02240045  RH  032%=      5-min Rain = 0
KONS 151945Z 27013KT 22/05 A2993 RMK A01 T02230045  RH  032%=      5-min Rain = 0
KONS 151950Z 27014KT 22/04 A2993 RMK A01 T02210044  RH  032%=      5-min Rain = 0
KONS 151955Z 27012G17KT 23/05 A2993 RMK A01 T02270046  RH  031%=      5-min Rain = 0
KONS 152000Z 27014G19KT 24/05 A2992 RMK A01 T02360046  RH  030%=      5-min Rain = 0
KONS 152005Z 27013G18KT 24/05 A2992 RMK A01 T02360046  RH  029%=      5-min Rain = 0
KONS 152010Z 27015KT 23/05 A2992 RMK A01 T02310045  RH  030%=      5-min Rain = 0
KONS 152015Z 27012G17KT 24/05 A2992 RMK A01 T02350046  RH  030%=      5-min Rain = 0
KONS 152020Z 27014KT 24/05 A2992 RMK A01 T02350046  RH  030%=      5-min Rain = 0
KONS 152025Z 27015G20KT 23/05 A2992 RMK A01 T02320047  RH  030%=      5-min Rain = 0
KONS 152030Z 27016KT 23/05 A2992 RMK A01 T02330046  RH  030%=      5-min Rain = 0
KONS 152035Z 26016KT 23/05 A2991 RMK A01 T02330046  RH  030%=      5-min Rain = 0
KONS 152040Z 26014KT 23/05 A2991 RMK A01 T02330048  RH  030%=      5-min Rain = 0
KONS 152045Z 25015G26KT 24/05 A2991 RMK A01 T02360047  RH  030%=      5-min Rain = 0
KONS 152050Z 26014KT 24/05 A2991 RMK A01 T02360047  RH  030%=      5-min Rain = 0
KONS 152055Z 25016G22KT 24/05 A2991 RMK A01 T02360048  RH  030%=      5-min Rain = 0
KONS 152100Z 25017G23KT 24/05 A2991 RMK A01 T02360047  RH  030%=      5-min Rain = 0
KONS 152105Z 26017G22KT 24/05 A2991 RMK A01 T02410047  RH  029%=      5-min Rain = 0
KONS 152110Z 26019G31KT 24/05 A2991 RMK A01 T02410045  RH  028%=      5-min Rain = 0
KONS 152115Z 26018G24KT 24/05 A2991 RMK A01 T02370046  RH  029%=      5-min Rain = 0
KONS 152120Z 27016KT 23/05 A2991 RMK A01 T02310046  RH  030%=      5-min Rain = 0
KONS 152125Z 26015G25KT 23/05 A2991 RMK A01 T02320045  RH  030%=      5-min Rain = 0
KONS 152130Z 28016KT 23/05 A2991 RMK A01 T02290046  RH  031%=      5-min Rain = 0
KONS 152135Z 27015KT 23/05 A2991 RMK A01 T02260046  RH  031%=      5-min Rain = 0
KONS 152140Z 27014KT 22/05 A2991 RMK A01 T02240045  RH  032%=      5-min Rain = 0
KONS 152145Z 27014KT 22/04 A2991 RMK A01 T02210044  RH  032%=      5-min Rain = 0
KONS 152150Z 27014KT 22/04 A2991 RMK A01 T02210044  RH  032%=      5-min Rain = 0
KONS 152155Z 26013KT 22/05 A2991 RMK A01 T02220045  RH  032%=      5-min Rain = 0
KONS 152200Z 26015KT 22/05 A2991 RMK A01 T02240047  RH  032%=      5-min Rain = 0
KONS 152205Z 26017KT 23/05 A2991 RMK A01 T02260046  RH  031%=      5-min Rain = 0
KONS 152210Z 26017G23KT 23/05 A2992 RMK A01 T02300046  RH  030%=      5-min Rain = 0
KONS 152215Z 26015G21KT 23/05 A2992 RMK A01 T02300046  RH  031%=      5-min Rain = 0
KONS 152220Z 26015KT 23/05 A2992 RMK A01 T02290045  RH  031%=      5-min Rain = 0
KONS 152225Z 27014KT 23/05 A2992 RMK A01 T02250045  RH  031%=      5-min Rain = 0
KONS 152230Z 28014G20KT 22/05 A2993 RMK A01 T02230045  RH  032%=      5-min Rain = 0
KONS 152235Z 30016KT 22/04 A2992 RMK A01 T02180043  RH  032%=      5-min Rain = 0
KONS 152240Z 30017KT 22/04 A2992 RMK A01 T02160042  RH  032%=      5-min Rain = 0
KONS 152245Z 30016KT 22/04 A2993 RMK A01 T02160041  RH  032%=      5-min Rain = 0
KONS 152250Z 30016KT 21/04 A2993 RMK A01 T02110041  RH  033%=      5-min Rain = 0
KONS 152255Z 30015KT 21/04 A2993 RMK A01 T02100041  RH  033%=      5-min Rain = 0
KONS 152300Z 30017KT 21/04 A2993 RMK A01 T02090041  RH  034%=      5-min Rain = 0
KONS 152305Z 29015KT 21/04 A2993 RMK A01 T02060041  RH  034%=      5-min Rain = 0
KONS 152310Z 29015G20KT 20/04 A2993 RMK A01 T02030041  RH  035%=      5-min Rain = 0
KONS 152315Z 29015KT 20/04 A2994 RMK A01 T02000041  RH  035%=      5-min Rain = 0
KONS 152320Z 29015KT 20/04 A2994 RMK A01 T01990041  RH  036%=      5-min Rain = 0
KONS 152325Z 29015KT 20/04 A2994 RMK A01 T01980042  RH  036%=      5-min Rain = 0
KONS 152330Z 29015KT 20/04 A2995 RMK A01 T01970041  RH  036%=      5-min Rain = 0
KONS 152335Z 29013KT 20/04 A2995 RMK A01 T01950042  RH  037%=      5-min Rain = 0
KONS 152340Z 30013KT 19/04 A2995 RMK A01 T01940042  RH  037%=      5-min Rain = 0
KONS 152345Z 30011KT 19/04 A2995 RMK A01 T01920042  RH  038%=      5-min Rain = 0
KONS 152350Z 29010KT 19/04 A2995 RMK A01 T01900043  RH  038%=      5-min Rain = 0
KONS 152355Z 29011KT 19/04 A2995 RMK A01 T01890043  RH  039%=      5-min Rain = 0
KONS 160000Z 29012KT 19/04 A2995 RMK A01 T01880043  RH  039%=      5-min Rain = 0
KONS 160005Z 29012KT 19/04 A2995 RMK A01 T01860043  RH  039%=      5-min Rain = 0
KONS 160010Z 29011KT 18/04 A2996 RMK A01 T01830042  RH  040%=      5-min Rain = 0
KONS 160015Z 28010KT 18/04 A2996 RMK A01 T01810042  RH  040%=      5-min Rain = 0
KONS 160020Z 28009KT 18/04 A2996 RMK A01 T01790041  RH  040%=      5-min Rain = 0
KONS 160025Z 28009KT 18/04 A2996 RMK A01 T01770041  RH  041%=      5-min Rain = 0
KONS 160030Z 28009KT 18/04 A2996 RMK A01 T01750041  RH  042%=      5-min Rain = 0
KONS 160035Z 28009KT 17/04 A2996 RMK A01 T01740042  RH  042%=      5-min Rain = 0
KONS 160040Z 28009KT 17/04 A2997 RMK A01 T01720043  RH  043%=      5-min Rain = 0
KONS 160045Z 27009KT 17/04 A2997 RMK A01 T01700044  RH  044%=      5-min Rain = 0
KONS 160050Z 27008KT 17/05 A2997 RMK A01 T01670045  RH  045%=      5-min Rain = 0
KONS 160055Z 27008KT 16/05 A2997 RMK A01 T01630046  RH  046%=      5-min Rain = 0
KONS 160100Z 26008KT 16/05 A2997 RMK A01 T01600046  RH  047%=      5-min Rain = 0
KONS 160105Z 26008KT 16/05 A2997 RMK A01 T01590045  RH  047%=      5-min Rain = 0
KONS 160110Z 26009KT 16/05 A2997 RMK A01 T01580047  RH  048%=      5-min Rain = 0
KONS 160115Z 26008KT 16/05 A2997 RMK A01 T01550050  RH  050%=      5-min Rain = 0
KONS 160120Z 26008KT 15/05 A2998 RMK A01 T01490052  RH  053%=      5-min Rain = 0
KONS 160125Z 27010KT 15/05 A2998 RMK A01 T01500053  RH  053%=      5-min Rain = 0
KONS 160130Z 27010KT 15/05 A2999 RMK A01 T01530054  RH  052%=      5-min Rain = 0
KONS 160135Z 26010KT 15/05 A2999 RMK A01 T01540054  RH  052%=      5-min Rain = 0
KONS 160140Z 26010KT 16/05 A2999 RMK A01 T01550053  RH  051%=      5-min Rain = 0
KONS 160145Z 26010KT 15/05 A2999 RMK A01 T01540053  RH  052%=      5-min Rain = 0
KONS 160150Z 26009KT 15/05 A30 RMK A01 T01500054  RH  053%=      5-min Rain = 0
KONS 160155Z 26009KT 14/06 A30 RMK A01 T01430055  RH  056%=      5-min Rain = 0
KONS 160200Z 26009KT 14/06 A30 RMK A01 T01390056  RH  058%=      5-min Rain = 0
KONS 160205Z 25008KT 14/06 A30 RMK A01 T01350056  RH  060%=      5-min Rain = 0
KONS 160210Z 26008KT 13/06 A30 RMK A01 T01320055  RH  060%=      5-min Rain = 0
KONS 160215Z 26008KT 13/05 A30 RMK A01 T01320054  RH  060%=      5-min Rain = 0
KONS 160220Z 26008KT 13/05 A30 RMK A01 T01320054  RH  060%=      5-min Rain = 0
KONS 160225Z 26008KT 13/06 A3001 RMK A01 T01320055  RH  060%=      5-min Rain = 0
KONS 160230Z 26009KT 13/06 A3001 RMK A01 T01340056  RH  060%=      5-min Rain = 0
KONS 160235Z 26010KT 14/06 A3001 RMK A01 T01370057  RH  059%=      5-min Rain = 0
KONS 160240Z 26009KT 14/06 A3001 RMK A01 T01400057  RH  058%=      5-min Rain = 0
KONS 160245Z 26009KT 14/06 A3002 RMK A01 T01410057  RH  058%=      5-min Rain = 0
KONS 160250Z 26009KT 14/06 A3002 RMK A01 T01410057  RH  058%=      5-min Rain = 0
KONS 160255Z 26009KT 14/06 A3002 RMK A01 T01410057  RH  058%=      5-min Rain = 0
KONS 160300Z 26009KT 14/06 A3002 RMK A01 T01400057  RH  058%=      5-min Rain = 0
KONS 160305Z 26010KT 14/06 A3002 RMK A01 T01400057  RH  058%=      5-min Rain = 0
KONS 160310Z 26010KT 14/06 A3002 RMK A01 T01380058  RH  059%=      5-min Rain = 0
KONS 160315Z 25010KT 13/06 A3003 RMK A01 T01320059  RH  062%=      5-min Rain = 0
KONS 160320Z 25010KT 13/06 A3003 RMK A01 T01270058  RH  064%=      5-min Rain = 0
KONS 160325Z 25010KT 13/06 A3003 RMK A01 T01250056  RH  064%=      5-min Rain = 0
KONS 160330Z 25010KT 12/06 A3003 RMK A01 T01240057  RH  064%=      5-min Rain = 0
KONS 160335Z 26010KT 13/06 A3003 RMK A01 T01260057  RH  064%=      5-min Rain = 0
KONS 160340Z 26009KT 13/06 A3003 RMK A01 T01260057  RH  064%=      5-min Rain = 0
KONS 160345Z 26009KT 13/06 A3004 RMK A01 T01260057  RH  064%=      5-min Rain = 0
KONS 160350Z 26009KT 12/06 A3004 RMK A01 T01240057  RH  065%=      5-min Rain = 0
KONS 160355Z 27009KT 12/06 A3004 RMK A01 T01220057  RH  065%=      5-min Rain = 0
KONS 160400Z 28008KT 12/06 A3004 RMK A01 T01200056  RH  066%=      5-min Rain = 0
KONS 160405Z 28009KT 12/06 A3004 RMK A01 T01170056  RH  067%=      5-min Rain = 0
KONS 160410Z 28008KT 12/06 A3005 RMK A01 T01170057  RH  067%=      5-min Rain = 0
KONS 160415Z 28010KT 12/06 A3005 RMK A01 T01230058  RH  065%=      5-min Rain = 0
KONS 160420Z 28011KT 13/06 A3005 RMK A01 T01300057  RH  062%=      5-min Rain = 0
KONS 160425Z 29012KT 13/06 A3005 RMK A01 T01330056  RH  060%=      5-min Rain = 0
KONS 160430Z 29012KT 13/05 A3005 RMK A01 T01340054  RH  059%=      5-min Rain = 0
KONS 160435Z 29013KT 13/05 A3005 RMK A01 T01330053  RH  059%=      5-min Rain = 0
KONS 160440Z 29013G18KT 13/05 A3005 RMK A01 T01340051  RH  058%=      5-min Rain = 0
KONS 160445Z 28014KT 14/05 A3006 RMK A01 T01350050  RH  057%=      5-min Rain = 0
KONS 160450Z 28014KT 14/05 A3006 RMK A01 T01350048  RH  056%=      5-min Rain = 0
KONS 160455Z 28014KT 14/05 A3006 RMK A01 T01360047  RH  055%=      5-min Rain = 0
KONS 160500Z 28013KT 14/05 A3006 RMK A01 T01360045  RH  055%=      5-min Rain = 0
KONS 160505Z 29013KT 14/04 A3006 RMK A01 T01350044  RH  055%=      5-min Rain = 0
KONS 160510Z 28013KT 13/04 A3006 RMK A01 T01340043  RH  055%=      5-min Rain = 0
KONS 160515Z 29013KT 13/04 A3007 RMK A01 T01320042  RH  055%=      5-min Rain = 0
KONS 160520Z 29013KT 13/04 A3007 RMK A01 T01320041  RH  055%=      5-min Rain = 0
KONS 160525Z 29013KT 13/04 A3007 RMK A01 T01310040  RH  055%=      5-min Rain = 0
KONS 160530Z 29013KT 13/04 A3007 RMK A01 T01300040  RH  055%=      5-min Rain = 0
KONS 160535Z 29012G17KT 13/04 A3008 RMK A01 T01290039  RH  055%=      5-min Rain = 0
KONS 160540Z 30012KT 13/04 A3008 RMK A01 T01260039  RH  056%=      5-min Rain = 0
KONS 160545Z 30011KT 12/04 A3009 RMK A01 T01240039  RH  057%=      5-min Rain = 0
KONS 160550Z 30012KT 12/04 A3009 RMK A01 T01230039  RH  058%=      5-min Rain = 0
KONS 160555Z 30012KT 12/04 A3009 RMK A01 T01220039  RH  058%=      5-min Rain = 0

Page generated in 0.0324 seconds.